Time,TemperatureF,DewpointF,PressureIn,WindDirection,WindDirectionDegrees,WindSpeedMPH,WindSpeedGustMPH,Humidity,HourlyPrecipIn,Conditions,Clouds,dailyrainin,SolarRadiationWatts/m^2,SoftwareType,DateUTC
2013-04-13 00:04:00,67.0,15.0,-100.00,WNW,297,20.0,40.0,13,0.00,,,0.00,0.000000,,2013-04-13 07:04:00,
2013-04-13 00:13:00,67.0,15.0,-100.00,WNW,297,20.0,40.0,13,0.00,,,0.00,0.000000,,2013-04-13 07:13:00,
2013-04-13 00:22:00,67.0,15.0,-100.00,WNW,297,20.0,40.0,13,0.00,,,0.00,0.000000,,2013-04-13 07:22:00,
2013-04-13 00:55:00,67.0,13.0,-100.00,WNW,302,31.0,44.0,12,0.00,,,0.00,0.000000,,2013-04-13 07:55:00,
2013-04-13 01:13:00,67.0,13.0,-100.00,WNW,302,31.0,44.0,12,0.00,,,0.00,0.000000,,2013-04-13 08:13:00,
2013-04-13 01:22:00,67.0,13.0,-100.00,WNW,302,31.0,44.0,12,0.00,,,0.00,0.000000,,2013-04-13 08:22:00,
2013-04-13 01:54:00,67.0,1.0,-100.00,NW,310,30.0,45.0,7,0.00,,,0.00,0.000000,,2013-04-13 08:54:00,
2013-04-13 02:04:00,67.0,1.0,-100.00,NW,310,30.0,45.0,7,0.00,,,0.00,0.000000,,2013-04-13 09:04:00,
2013-04-13 02:55:00,65.0,9.0,-100.00,NW,312,29.0,48.0,11,0.00,,,0.00,0.000000,,2013-04-13 09:55:00,
2013-04-13 03:04:00,65.0,9.0,-100.00,NW,312,29.0,48.0,11,0.00,,,0.00,0.000000,,2013-04-13 10:04:00,
2013-04-13 03:55:00,63.0,8.0,-100.00,NNW,330,31.0,46.0,11,0.00,,,0.00,0.000000,,2013-04-13 10:55:00,
2013-04-13 04:05:00,63.0,8.0,-100.00,NNW,330,31.0,46.0,11,0.00,,,0.00,0.000000,,2013-04-13 11:05:00,
2013-04-13 04:53:00,65.0,-1.0,-100.00,NW,307,29.0,45.0,7,0.00,,,0.00,0.000000,,2013-04-13 11:53:00,
2013-04-13 05:06:00,65.0,-1.0,-100.00,NW,307,29.0,45.0,7,0.00,,,0.00,0.000000,,2013-04-13 12:06:00,
2013-04-13 05:14:00,65.0,-1.0,-100.00,NW,307,29.0,45.0,7,0.00,,,0.00,0.000000,,2013-04-13 12:14:00,
2013-04-13 05:23:00,65.0,-1.0,-100.00,NW,307,29.0,45.0,7,0.00,,,0.00,0.000000,,2013-04-13 12:23:00,
2013-04-13 05:55:00,66.0,0.0,-100.00,WNW,295,22.0,37.0,7,0.00,,,0.00,0.000000,,2013-04-13 12:55:00,
2013-04-13 06:55:00,63.0,1.0,-100.00,NW,321,18.0,30.0,8,0.00,,,-99.99,0.000000,,2013-04-13 13:55:00,
2013-04-13 07:59:00,63.0,15.0,-100.00,NE,56,2.0,25.0,15,0.00,,,0.00,97.000000,,2013-04-13 14:59:00,
2013-04-13 08:13:00,63.0,15.0,-100.00,NE,56,2.0,25.0,15,0.00,,,0.00,97.000000,,2013-04-13 15:13:00,
2013-04-13 08:23:00,63.0,15.0,-100.00,NE,56,2.0,25.0,15,0.00,,,0.00,97.000000,,2013-04-13 15:23:00,
2013-04-13 08:57:00,62.0,18.0,-100.00,South,170,2.0,8.0,18,0.00,,,0.00,314.000000,,2013-04-13 15:57:00,
2013-04-13 09:05:00,62.0,18.0,-100.00,South,170,2.0,8.0,18,0.00,,,0.00,314.000000,,2013-04-13 16:05:00,
2013-04-13 09:13:00,62.0,18.0,-100.00,South,170,2.0,8.0,18,0.00,,,0.00,314.000000,,2013-04-13 16:13:00,
2013-04-13 09:23:00,62.0,18.0,-100.00,South,170,2.0,8.0,18,0.00,,,0.00,314.000000,,2013-04-13 16:23:00,
2013-04-13 09:55:00,68.0,23.0,-100.00,SSE,153,1.0,9.0,18,0.00,,,0.00,493.000000,,2013-04-13 16:55:00,
2013-04-13 10:05:00,68.0,23.0,-100.00,SSE,153,1.0,9.0,18,0.00,,,0.00,493.000000,,2013-04-13 17:05:00,
2013-04-13 10:17:00,68.0,23.0,-100.00,SSE,153,1.0,9.0,18,0.00,,,0.00,493.000000,,2013-04-13 17:17:00,
2013-04-13 10:23:00,68.0,23.0,-100.00,SSE,153,1.0,9.0,18,0.00,,,0.00,493.000000,,2013-04-13 17:23:00,
2013-04-13 11:03:00,68.0,20.0,-100.00,NE,39,6.0,12.0,16,0.00,,,0.00,796.000000,,2013-04-13 18:03:00,
2013-04-13 11:14:00,68.0,20.0,-100.00,NE,39,6.0,12.0,16,0.00,,,0.00,796.000000,,2013-04-13 18:14:00,
2013-04-13 11:23:00,68.0,20.0,-100.00,NE,39,6.0,12.0,16,0.00,,,0.00,796.000000,,2013-04-13 18:23:00,
2013-04-13 11:53:00,74.0,18.0,-100.00,ENE,61,5.0,11.0,12,0.00,,,0.00,1028.000000,,2013-04-13 18:53:00,
2013-04-13 12:02:00,74.0,18.0,-100.00,ENE,61,5.0,11.0,12,0.00,,,0.00,1028.000000,,2013-04-13 19:02:00,
2013-04-13 12:12:00,74.0,18.0,-100.00,ENE,61,5.0,11.0,12,0.00,,,0.00,1028.000000,,2013-04-13 19:12:00,
2013-04-13 12:22:00,74.0,18.0,-100.00,ENE,61,5.0,11.0,12,0.00,,,0.00,1028.000000,,2013-04-13 19:22:00,
2013-04-13 12:53:00,79.0,18.0,-100.00,SSE,152,6.0,14.0,10,0.00,,,0.00,1156.000000,,2013-04-13 19:53:00,
2013-04-13 13:02:00,79.0,18.0,-100.00,SSE,152,6.0,14.0,10,0.00,,,0.00,1156.000000,,2013-04-13 20:02:00,
2013-04-13 13:12:00,79.0,18.0,-100.00,SSE,152,6.0,14.0,10,0.00,,,0.00,1156.000000,,2013-04-13 20:12:00,
2013-04-13 13:22:00,79.0,18.0,-100.00,SSE,152,6.0,14.0,10,0.00,,,0.00,1156.000000,,2013-04-13 20:22:00,
2013-04-13 13:52:00,81.0,19.0,-100.00,South,174,5.0,16.0,10,0.00,,,0.00,1126.000000,,2013-04-13 20:52:00,
2013-04-13 14:02:00,81.0,19.0,-100.00,South,174,5.0,16.0,10,0.00,,,0.00,1126.000000,,2013-04-13 21:02:00,
2013-04-13 14:12:00,81.0,19.0,-100.00,South,174,5.0,16.0,10,0.00,,,0.00,1126.000000,,2013-04-13 21:12:00,
2013-04-13 14:22:00,81.0,19.0,-100.00,South,174,5.0,16.0,10,0.00,,,0.00,1126.000000,,2013-04-13 21:22:00,
2013-04-13 14:53:00,78.0,25.0,-100.00,SSW,201,20.0,32.0,14,0.00,,,0.00,1033.000000,,2013-04-13 21:53:00,
2013-04-13 15:02:00,78.0,25.0,-100.00,SSW,201,20.0,32.0,14,0.00,,,0.00,1033.000000,,2013-04-13 22:02:00,
2013-04-13 15:12:00,78.0,25.0,-100.00,SSW,201,20.0,32.0,14,0.00,,,0.00,1033.000000,,2013-04-13 22:12:00,
2013-04-13 15:22:00,78.0,25.0,-100.00,SSW,201,20.0,32.0,14,0.00,,,0.00,1033.000000,,2013-04-13 22:22:00,
2013-04-13 15:53:00,75.0,29.0,-100.00,SW,230,26.0,40.0,18,0.00,,,0.00,894.000000,,2013-04-13 22:53:00,
2013-04-13 16:02:00,75.0,29.0,-100.00,SW,230,26.0,40.0,18,0.00,,,0.00,894.000000,,2013-04-13 23:02:00,
2013-04-13 16:12:00,75.0,29.0,-100.00,SW,230,26.0,40.0,18,0.00,,,0.00,894.000000,,2013-04-13 23:12:00,
2013-04-13 16:22:00,75.0,29.0,-100.00,SW,230,26.0,40.0,18,0.00,,,0.00,894.000000,,2013-04-13 23:22:00,
2013-04-13 16:53:00,76.0,23.0,-100.00,SW,218,25.0,42.0,14,0.00,,,0.00,858.000000,,2013-04-13 23:53:00,
2013-04-13 17:02:00,76.0,23.0,-100.00,SW,218,25.0,42.0,14,0.00,,,0.00,858.000000,,2013-04-14 00:02:00,
2013-04-13 17:12:00,76.0,23.0,-100.00,SW,218,25.0,42.0,14,0.00,,,0.00,858.000000,,2013-04-14 00:12:00,
2013-04-13 17:22:00,76.0,23.0,-100.00,SW,218,25.0,42.0,14,0.00,,,0.00,858.000000,,2013-04-14 00:22:00,
2013-04-13 17:52:00,75.0,26.0,-100.00,SW,235,24.0,47.0,16,0.00,,,0.00,644.000000,,2013-04-14 00:52:00,
2013-04-13 18:02:00,75.0,26.0,-100.00,SW,235,24.0,47.0,16,0.00,,,0.00,644.000000,,2013-04-14 01:02:00,
2013-04-13 18:12:00,75.0,26.0,-100.00,SW,235,24.0,47.0,16,0.00,,,0.00,644.000000,,2013-04-14 01:12:00,
2013-04-13 18:22:00,75.0,26.0,-100.00,SW,235,24.0,47.0,16,0.00,,,0.00,644.000000,,2013-04-14 01:22:00,
2013-04-13 18:53:00,74.0,32.0,-100.00,West,275,26.0,39.0,21,0.00,,,0.00,235.000000,,2013-04-14 01:53:00,
2013-04-13 19:02:00,74.0,32.0,-100.00,West,275,26.0,39.0,21,0.00,,,0.00,235.000000,,2013-04-14 02:02:00,
2013-04-13 19:12:00,74.0,32.0,-100.00,West,275,26.0,39.0,21,0.00,,,0.00,235.000000,,2013-04-14 02:12:00,
2013-04-13 19:22:00,74.0,32.0,-100.00,West,275,26.0,39.0,21,0.00,,,0.00,235.000000,,2013-04-14 02:22:00,
2013-04-13 19:53:00,71.0,31.0,-100.00,West,273,27.0,43.0,23,0.00,,,0.00,40.000000,,2013-04-14 02:53:00,
2013-04-13 20:02:00,71.0,31.0,-100.00,West,273,27.0,43.0,23,0.00,,,0.00,40.000000,,2013-04-14 03:02:00,
2013-04-13 20:12:00,71.0,31.0,-100.00,West,273,27.0,43.0,23,0.00,,,0.00,40.000000,,2013-04-14 03:12:00,
2013-04-13 20:22:00,71.0,31.0,-100.00,West,273,27.0,43.0,23,0.00,,,0.00,40.000000,,2013-04-14 03:22:00,
2013-04-13 20:53:00,67.0,31.0,-100.00,West,270,32.0,49.0,26,0.00,,,0.00,0.000000,,2013-04-14 03:53:00,
2013-04-13 21:02:00,67.0,31.0,-100.00,West,270,32.0,49.0,26,0.00,,,0.00,0.000000,,2013-04-14 04:02:00,
2013-04-13 21:12:00,67.0,31.0,-100.00,West,270,32.0,49.0,26,0.00,,,0.00,0.000000,,2013-04-14 04:12:00,
2013-04-13 21:22:00,67.0,31.0,-100.00,West,270,32.0,49.0,26,0.00,,,0.00,0.000000,,2013-04-14 04:22:00,
2013-04-13 21:52:00,71.0,27.0,-100.00,WNW,297,45.0,63.0,19,0.00,,,0.00,0.000000,,2013-04-14 04:52:00,
2013-04-13 22:02:00,71.0,27.0,-100.00,WNW,297,45.0,63.0,19,0.00,,,0.00,0.000000,,2013-04-14 05:02:00,
2013-04-13 22:12:00,71.0,27.0,-100.00,WNW,297,45.0,63.0,19,0.00,,,0.00,0.000000,,2013-04-14 05:12:00,
2013-04-13 22:22:00,71.0,27.0,-100.00,WNW,297,45.0,63.0,19,0.00,,,0.00,0.000000,,2013-04-14 05:22:00,
2013-04-13 22:52:00,70.0,22.0,-100.00,WNW,301,45.0,69.0,16,0.00,,,0.00,0.000000,,2013-04-14 05:52:00,
2013-04-13 23:52:00,69.0,27.0,-100.00,WNW,299,44.0,61.0,21,0.00,,,0.00,0.000000,,2013-04-14 06:52:00,